SEASEATTLE-TACOMA INTL
METARs for airports near SEA, sorted by distance:
N 0 nm 432' KSEA 261553Z 18010KT 10SM BKN025 OVC060 14/09 A2988
NE 4 nm 32' KRNT 261610Z 17006KT 10SM SCT024 BKN055 15/10 A2987
N 4 nm 21' KBFI 261553Z 15010KT 10SM OVC030 14/10 A2987
SW 15 nm 294' KTIW 261553Z 20010G19KT 10SM BKN022 BKN027 OVC055 13/11 A2988
W 18 nm 444' KPWT 261556Z 21010KT 10SM BKN028 13/11 A2987
S 19 nm 322' KTCM 261558Z 13005KT 10SM FEW028 BKN060 OVC140 15/11 A2987
S 20 nm 537' KPLU 261615Z 00000KT 10SM SCT060 SCT085 BKN110 14/11 A2989
SW 24 nm 301' KGRF 261601Z 15010KT 10SM SCT060 SCT110 14/10 A2987
N 27 nm 607' KPAE 261553Z 15012G20KT 10SM FEW035 BKN100 BKN120 14/09 A2986
W 36 nm 272' KSHN 261553Z 00000KT 10SM OVC029 13/10 A2986
SW 37 nm 207' KOLM 261554Z 19013KT 10SM BKN015 BKN025 OVC120 14/11 A2988
N 43 nm 141' KAWO 261556Z 13014G19KT 10SM OVC037 15/09 A2986
SW 53 nm 177' KCLS 261615Z 19010G19KT 10SM OVC014 14/12 A2990
N 55 nm 47' KNUW 261556Z 13014KT 10SM FEW015 BKN025 BKN045 16/10 A2985
NW 60 nm 13' KNOW 261615Z 36004KT 10SM BKN075 OVC090 11/11 A2982
N 61 nm 145' KBVS 261615Z 13008KT 9SM OVC028 16/10 A2984
NW 62 nm 291' KCLM 261553Z 00000KT 7SM -RA BKN075 OVC090 13/11 A2981
NW 70 nm 112' KFHR 261553Z 10004KT 9SM -RA OVC019 13/11 A2983
SW 72 nm 17' KHQM 261553Z 14004KT 10SM OVC022 16/11 A2986
E 76 nm 1763' KELN 261553Z 31010KT 10SM CLR 18/08 A2981
N 79 nm 34' KORS 261615Z 00000KT 6SM -RA BR SCT024 BKN033 OVC050 13/12 A2983
N 81 nm 171' KBLI 261554Z 18008G18KT 10SM -RA SCT030 OVC037 15/11 A2984
S 83 nm 20' KKLS 261556Z 15007KT 10SM FEW016 BKN029 OVC110 14/11 A2993
NW 84 nm 64' CYYJ 261600Z 04002KT 5SM -RA BR FEW018 BKN034 OVC050 12/12 A2983
E 85 nm 1248' KEAT 261555Z 29003KT 10SM CLR 18/08 A2977
SE 89 nm 1098' KYKM 261553Z 29003KT 10SM CLR 14/12 A2981
W 95 nm 193' KUIL 261553Z 16008KT 130V210 1 3/4SM -RA BR OVC008 13/13 A2980
TAFs for airports near SEA, sorted by distance:
N 0 nm 432' KSEA KSEA 261451Z 2615/2718 16009KT P6SM OVC030
  FM261600 22012KT P6SM BKN030 BKN120
  FM262000 24012KT P6SM VCSH BKN025 OVC060
  FM270000 20015G22KT 4SM -RA BR OVC025
  FM270300 18010G18KT 4SM -RA BR OVC015
N 4 nm 21' KBFI TAF
  AMD KBFI 261450Z 2615/2712 16009KT P6SM BKN030 BKN050
  FM261600 20011KT P6SM BKN035 BKN120
  FM262300 18010G15KT P6SM -RA BKN030 OVC060
W 18 nm 444' KPWT TAF KPWT 261124Z 2612/2712 20011KT P6SM SCT035 BKN100
  FM261400 19012KT P6SM OVC015
  FM261600 20012G18KT P6SM VCSH OVC015
  FM261900 19013G20KT P6SM -RA BKN020 OVC050
S 19 nm 322' KTCM TAF TAF KTCM 261300Z 2613/2719 26012KT 9999 BKN020 QNH2989INS
  BECMG 2616/2617 26012G18KT 9999 BKN020 QNH2982INS
  TEMPO 2617/2620 BKN040
  BECMG 2620/2621 19010KT 9000 -SHRA BKN010 OVC020 QNH2972INS
  TEMPO 2700/2704 18010G20KT
  BECMG 2713/2714 18009KT 9000 -SHRA BKN030 OVC040 QNH2975INS TX19/2622Z TN10/2613Z
SW 24 nm 301' KGRF TAF KGRF 261300Z 2613/2719 20005KT 9999 OVC025 QNH2973INS
  BECMG 2622/2623 20010G15KT 8000 SHRA OVC040 510406 QNH2969INS
  BECMG 2705/2706 20008KT 9999 -SHRA OVC015 QNH2970INS
  BECMG 2716/2717 20009KT 9999 -SHRA OVC030 QNH2980INS TX18/2700Z TN12/2613Z
N 27 nm 607' KPAE KPAE 261124Z 2612/2712 17011KT P6SM SCT035 OVC050
  FM261400 17012G18KT P6SM BKN018 BKN100
  FM262000 18010G15KT P6SM -RA BKN020 OVC050
SW 37 nm 207' KOLM KOLM 261124Z 2612/2712 22004KT P6SM BKN200
  FM261500 19007KT 6SM BR BKN015 BKN100
  FM261900 20010KT P6SM -RA BKN020 OVC050
N 55 nm 47' KNUW TAF KNUW 2523/2623 26009KT 9999 SCT015 BKN150 BKN250 QNH2980INS
  FM261200 14009KT 9999 BKN020 BKN150 OVC250 QNH2979INS
  FM261500 14018G25KT 9999 VCSH BKN020 BKN100 OVC250 QNH2974INS
  TEMPO 2615/2621 9000 -SHRA
  FM262100 14010KT 9000 -SHRA BKN015 OVC080 QNH2968INS T10/2612Z T16/2622Z FS30173
NW 62 nm 291' KCLM KCLM 261124Z 2612/2712 21003KT P6SM VCSH BKN025
  FM261500 VRB05KT 6SM -RA BR BKN015 OVC050
  FM262200 VRB03KT 4SM -RA BR OVC020
SW 72 nm 17' KHQM KHQM 261124Z 2612/2712 21005KT P6SM SCT025 OVC035
  FM261300 14006KT 4SM BR OVC015
  FM261500 12013G18KT 4SM -RA BR OVC004
  FM262000 14015G22KT 2SM -RA OVC007
N 81 nm 171' KBLI KBLI 261124Z 2612/2712 17013G20KT P6SM SCT040
  FM261600 16014G22KT P6SM -RA BKN030 BKN100
  FM262200 15012KT 4SM -RA BR OVC030
E 85 nm 1248' KEAT TAF KEAT 261138Z 2612/2712 32008KT P6SM BKN200
  FM261900 26005KT P6SM SCT150 BKN200
  FM270300 30009KT P6SM SCT080 BKN100 OVC120
  FM271000 VRB05KT P6SM SCT060 OVC100
SE 89 nm 1098' KYKM TAF KYKM 261120Z 2612/2712 26004KT P6SM FEW250
  FM261900 20009G18KT P6SM SCT250
  FM270200 21006KT P6SM OVC100
  FM271000 19005KT P6SM OVC050
  FM271100 22005KT P6SM -RA OVC100

Shortcut to this page: http://wxbay.com.

Data may contain errors.